createdAt,value
2017-11-22T00:02:53.549Z,9.70
2017-11-22T00:05:54.919Z,9.70
2017-11-22T00:08:56.295Z,9.70
2017-11-22T00:11:57.697Z,9.70
2017-11-22T00:14:59.163Z,9.60
2017-11-22T00:18:00.690Z,9.50
2017-11-22T00:21:02.805Z,9.70
2017-11-22T00:24:04.260Z,9.70
2017-11-22T00:27:05.657Z,9.60
2017-11-22T00:30:07.920Z,9.60
2017-11-22T00:33:10.097Z,9.70
2017-11-22T00:36:12.329Z,9.70
2017-11-22T00:39:13.761Z,9.50
2017-11-22T00:42:15.198Z,9.70
2017-11-22T00:45:16.673Z,9.70
2017-11-22T00:48:18.121Z,9.40
2017-11-22T00:51:19.609Z,9.60
2017-11-22T00:54:21.038Z,9.70
2017-11-22T00:57:22.495Z,9.80
2017-11-22T01:00:23.901Z,9.50
2017-11-22T01:03:26.096Z,9.70
2017-11-22T01:06:27.588Z,9.50
2017-11-22T01:09:29.013Z,9.60
2017-11-22T01:12:30.483Z,9.70
2017-11-22T01:15:31.878Z,9.70
2017-11-22T01:18:34.085Z,9.70
2017-11-22T01:21:35.527Z,9.70
2017-11-22T01:24:37.009Z,9.80
2017-11-22T01:27:38.436Z,9.80
2017-11-22T01:30:39.916Z,9.90
2017-11-22T01:33:41.464Z,9.80
2017-11-22T01:36:42.913Z,9.80
2017-11-22T01:39:44.345Z,9.60
2017-11-22T01:42:45.856Z,9.60
2017-11-22T01:45:48.100Z,9.80
2017-11-22T01:48:49.547Z,10.00
2017-11-22T01:51:51.030Z,9.70
2017-11-22T01:54:52.501Z,9.80
2017-11-22T01:57:54.708Z,9.80
2017-11-22T02:00:56.179Z,9.70
2017-11-22T02:03:57.563Z,9.80
2017-11-22T02:06:59.775Z,9.80
2017-11-22T02:10:01.204Z,9.80
2017-11-22T02:13:03.500Z,9.80
2017-11-22T02:16:04.916Z,9.70
2017-11-22T02:19:07.105Z,9.80
2017-11-22T02:22:08.565Z,9.70
2017-11-22T02:25:09.989Z,9.80
2017-11-22T02:28:12.171Z,9.90
2017-11-22T02:31:13.629Z,9.80
2017-11-22T02:34:15.115Z,9.80
2017-11-22T02:37:16.576Z,9.70
2017-11-22T02:40:18.802Z,9.90
2017-11-22T02:43:20.333Z,9.90
2017-11-22T02:46:22.567Z,9.90
2017-11-22T02:49:24.040Z,9.80
2017-11-22T02:52:25.493Z,9.70
2017-11-22T02:55:27.684Z,9.90
2017-11-22T02:58:29.840Z,9.90
2017-11-22T03:01:31.196Z,9.90
2017-11-22T03:04:32.609Z,10.00
2017-11-22T03:07:33.996Z,9.70
2017-11-22T03:10:35.405Z,10.00
2017-11-22T03:13:36.822Z,10.00
2017-11-22T03:16:39.017Z,10.00
2017-11-22T03:19:40.430Z,10.00
2017-11-22T03:22:41.825Z,10.10
2017-11-22T03:25:43.263Z,10.10
2017-11-22T03:28:44.651Z,10.10
2017-11-22T03:31:46.076Z,10.10
2017-11-22T03:34:47.481Z,10.20
2017-11-22T03:37:48.936Z,9.90
2017-11-22T03:40:50.364Z,10.10
2017-11-22T03:43:51.826Z,10.00
2017-11-22T03:46:53.336Z,9.90
2017-11-22T03:50:00.759Z,10.10
2017-11-22T03:53:08.388Z,10.10
2017-11-22T03:56:09.819Z,10.10
2017-11-22T03:59:11.255Z,10.20
2017-11-22T04:02:12.949Z,10.10
2017-11-22T04:05:14.403Z,10.20
2017-11-22T04:08:17.780Z,10.10
2017-11-22T04:11:21.195Z,10.10
2017-11-22T04:14:22.669Z,10.20
2017-11-22T04:17:24.880Z,10.20
2017-11-22T04:20:32.604Z,10.00
2017-11-22T04:23:34.039Z,10.00
2017-11-22T04:26:35.589Z,10.20
2017-11-22T04:29:37.025Z,10.20
2017-11-22T04:32:38.413Z,10.20
2017-11-22T04:35:39.842Z,10.20
2017-11-22T04:38:41.250Z,10.20
2017-11-22T04:41:42.744Z,10.20
2017-11-22T04:44:44.164Z,10.10
2017-11-22T04:47:45.665Z,10.20
2017-11-22T04:50:47.087Z,10.20
2017-11-22T04:53:49.253Z,10.20
2017-11-22T04:56:51.357Z,10.20
2017-11-22T04:59:52.838Z,10.20
2017-11-22T05:02:54.358Z,10.10
2017-11-22T05:05:55.761Z,10.20
2017-11-22T05:08:57.229Z,10.20
2017-11-22T05:11:59.370Z,10.20
2017-11-22T05:15:00.830Z,10.10
2017-11-22T05:18:02.253Z,10.20
2017-11-22T05:21:03.746Z,10.20
2017-11-22T05:24:05.172Z,10.20
2017-11-22T05:27:06.689Z,10.30
2017-11-22T05:30:08.809Z,10.10
2017-11-22T05:33:10.282Z,10.20
2017-11-22T05:36:11.722Z,10.10
2017-11-22T05:39:13.177Z,10.20
2017-11-22T05:42:14.668Z,10.10
2017-11-22T05:45:16.817Z,10.20
2017-11-22T05:48:18.276Z,10.10
2017-11-22T05:51:20.500Z,10.20
2017-11-22T05:54:22.674Z,10.20
2017-11-22T05:57:24.122Z,10.10
2017-11-22T06:00:26.532Z,10.20
2017-11-22T06:03:27.908Z,10.30
2017-11-22T06:06:30.122Z,10.20
2017-11-22T06:09:31.797Z,10.30
2017-11-22T06:15:42.070Z,10.20
2017-11-22T06:18:43.464Z,10.20
2017-11-22T06:21:46.875Z,10.30
2017-11-22T06:24:48.517Z,10.00
2017-11-22T06:27:49.948Z,10.30
2017-11-22T06:30:51.355Z,10.10
2017-11-22T06:33:52.802Z,10.20
2017-11-22T06:36:54.197Z,10.10
2017-11-22T06:39:55.621Z,10.20
2017-11-22T06:42:57.093Z,10.00
2017-11-22T06:45:58.534Z,10.20
2017-11-22T06:49:00.224Z,10.20
2017-11-22T06:52:01.753Z,10.00
2017-11-22T06:55:03.252Z,9.90
2017-11-22T06:58:04.659Z,10.20
2017-11-22T07:01:06.106Z,10.20
2017-11-22T07:04:07.735Z,10.20
2017-11-22T07:07:09.914Z,10.20
2017-11-22T07:10:11.290Z,10.20
2017-11-22T07:13:12.676Z,10.20
2017-11-22T07:16:20.036Z,10.30
2017-11-22T07:19:22.197Z,10.30
2017-11-22T07:22:24.101Z,10.40
2017-11-22T07:25:25.424Z,10.30
2017-11-22T07:28:26.809Z,10.30
2017-11-22T07:31:28.126Z,10.30
2017-11-22T07:34:29.494Z,10.30
2017-11-22T07:37:35.634Z,10.30
2017-11-22T07:40:37.030Z,10.30
2017-11-22T07:43:39.195Z,10.30
2017-11-22T07:46:41.633Z,10.30
2017-11-22T07:49:43.076Z,10.40
2017-11-22T07:52:44.574Z,10.50
2017-11-22T07:55:47.806Z,10.40
2017-11-22T07:58:49.150Z,10.60
2017-11-22T08:01:51.418Z,10.50
2017-11-22T08:04:53.572Z,10.50
2017-11-22T08:07:55.091Z,10.40
2017-11-22T08:10:56.418Z,10.50
2017-11-22T08:13:57.825Z,10.40
2017-11-22T08:17:01.130Z,10.60
2017-11-22T08:20:02.534Z,10.50
2017-11-22T08:23:03.930Z,10.50
2017-11-22T08:26:06.257Z,10.50
2017-11-22T08:29:07.725Z,10.60
2017-11-22T08:32:09.112Z,10.60
2017-11-22T08:35:10.532Z,10.60
2017-11-22T08:38:11.925Z,10.60
2017-11-22T08:41:13.357Z,10.60
2017-11-22T08:44:14.728Z,10.80
2017-11-22T08:47:16.125Z,10.60
2017-11-22T08:50:17.454Z,10.60
2017-11-22T08:53:19.577Z,10.70
2017-11-22T08:56:27.030Z,10.60
2017-11-22T08:59:28.329Z,10.70
2017-11-22T09:02:29.779Z,10.70
2017-11-22T09:05:31.435Z,10.70
2017-11-22T09:08:32.849Z,10.70
2017-11-22T09:11:34.228Z,10.70
2017-11-22T09:14:35.597Z,10.80
2017-11-22T09:17:37.440Z,10.70
2017-11-22T09:20:39.149Z,11.00
2017-11-22T09:23:40.530Z,10.80
2017-11-22T09:26:42.010Z,10.80
2017-11-22T09:29:45.321Z,10.80
2017-11-22T09:32:46.686Z,10.80
2017-11-22T09:35:48.951Z,10.80
2017-11-22T09:38:50.339Z,10.70
2017-11-22T09:41:51.699Z,10.80
2017-11-22T09:44:53.078Z,10.80
2017-11-22T09:47:54.476Z,10.70
2017-11-22T09:50:56.883Z,10.80
2017-11-22T09:53:59.457Z,10.70
2017-11-22T09:57:00.881Z,10.70
2017-11-22T10:00:02.969Z,10.70
2017-11-22T10:03:04.374Z,10.70
2017-11-22T10:06:05.770Z,10.50
2017-11-22T10:09:07.141Z,10.80
2017-11-22T10:12:08.441Z,10.90
2017-11-22T10:15:09.841Z,10.90
2017-11-22T10:18:11.324Z,10.90
2017-11-22T10:21:12.784Z,11.00
2017-11-22T10:28:01.564Z,11.10
2017-11-22T10:31:03.190Z,11.20
2017-11-22T10:34:04.569Z,11.40
2017-11-22T10:37:05.970Z,11.20
2017-11-22T10:40:07.389Z,11.30
2017-11-22T10:43:09.580Z,11.20
2017-11-22T10:46:11.029Z,11.10
2017-11-22T10:49:12.423Z,11.20
2017-11-22T10:52:13.866Z,11.20
2017-11-22T10:55:15.295Z,11.20
2017-11-22T10:58:16.695Z,11.30
2017-11-22T11:01:18.105Z,11.30
2017-11-22T11:04:19.590Z,11.30
2017-11-22T11:07:21.029Z,11.30
2017-11-22T11:10:22.630Z,11.30
2017-11-22T11:13:24.818Z,11.40
2017-11-22T11:16:26.342Z,11.20
2017-11-22T11:19:27.770Z,11.20
2017-11-22T11:22:29.143Z,11.30
2017-11-22T11:25:30.537Z,11.40
2017-11-22T11:28:31.907Z,11.50
2017-11-22T11:31:33.321Z,11.40
2017-11-22T11:34:35.472Z,11.60
2017-11-22T11:37:36.937Z,11.50
2017-11-22T11:40:39.136Z,14.60
2017-11-22T11:43:40.502Z,14.40
2017-11-22T11:46:42.077Z,13.50
2017-11-22T11:49:43.491Z,12.60
2017-11-22T11:52:44.889Z,12.20
2017-11-22T11:55:47.667Z,11.80
2017-11-22T11:58:49.710Z,11.80
2017-11-22T12:01:51.969Z,12.00
2017-11-22T12:04:53.385Z,12.00
2017-11-22T12:07:55.930Z,12.00
2017-11-22T12:10:57.728Z,11.90
2017-11-22T12:13:59.905Z,12.10
2017-11-22T12:17:02.065Z,12.10
2017-11-22T12:20:05.553Z,12.20
2017-11-22T12:23:12.978Z,12.00
2017-11-22T12:26:14.895Z,12.20
2017-11-22T12:29:17.013Z,12.90
2017-11-22T12:32:18.433Z,12.80
2017-11-22T12:35:21.731Z,12.40
2017-11-22T12:38:23.151Z,12.30
2017-11-22T12:41:24.507Z,12.30
2017-11-22T12:44:25.986Z,12.30
2017-11-22T12:47:27.408Z,12.30
2017-11-22T12:50:28.801Z,12.30
2017-11-22T12:53:30.986Z,12.20
2017-11-22T12:56:32.382Z,12.20
2017-11-22T12:59:33.790Z,12.10
2017-11-22T13:02:35.117Z,12.20
2017-11-22T13:05:37.259Z,12.30
2017-11-22T13:08:38.751Z,12.30
2017-11-22T13:11:41.031Z,12.30
2017-11-22T13:14:42.506Z,12.30
2017-11-22T13:17:44.007Z,12.30
2017-11-22T13:20:45.401Z,12.10
2017-11-22T13:23:46.854Z,12.40
2017-11-22T13:26:48.256Z,12.40
2017-11-22T13:29:49.697Z,12.30
2017-11-22T13:32:51.169Z,12.30
2017-11-22T13:35:52.558Z,12.30
2017-11-22T13:38:53.976Z,12.30
2017-11-22T13:41:55.396Z,12.40
2017-11-22T13:44:56.773Z,12.40
2017-11-22T13:47:58.957Z,12.30
2017-11-22T13:51:01.071Z,12.30
2017-11-22T13:54:02.427Z,12.30
2017-11-22T13:57:03.860Z,12.30
2017-11-22T14:00:05.323Z,12.40
2017-11-22T14:03:06.790Z,12.20
2017-11-22T14:06:08.269Z,12.20
2017-11-22T14:09:09.615Z,12.20
2017-11-22T14:12:11.026Z,12.30
2017-11-22T14:15:12.373Z,12.40
2017-11-22T14:18:13.829Z,12.30
2017-11-22T14:21:15.258Z,12.30
2017-11-22T14:24:16.743Z,12.20
2017-11-22T14:27:18.174Z,12.20
2017-11-22T14:30:19.583Z,12.00
2017-11-22T14:33:21.043Z,12.00
2017-11-22T14:36:23.210Z,12.10
2017-11-22T14:39:25.441Z,12.10
2017-11-22T14:42:26.948Z,12.10
2017-11-22T14:45:29.133Z,12.10
2017-11-22T14:48:30.493Z,12.00
2017-11-22T14:51:31.909Z,12.10
2017-11-22T14:54:34.034Z,12.00
2017-11-22T14:57:35.433Z,11.90
2017-11-22T15:00:37.527Z,11.90
2017-11-22T15:03:38.913Z,11.90
2017-11-22T15:06:40.862Z,11.90
2017-11-22T15:09:43.062Z,11.90
2017-11-22T15:12:44.485Z,11.80
2017-11-22T15:15:45.919Z,11.70
2017-11-22T15:18:47.403Z,11.80
2017-11-22T15:21:48.840Z,11.70
2017-11-22T15:24:50.226Z,11.70
2017-11-22T15:27:51.702Z,11.60
2017-11-22T15:30:53.947Z,11.60
2017-11-22T15:33:55.453Z,11.60
2017-11-22T15:36:56.919Z,11.60
2017-11-22T15:39:58.383Z,11.60
2017-11-22T15:42:59.889Z,11.50
2017-11-22T15:46:02.038Z,11.50
2017-11-22T15:49:03.549Z,11.50
2017-11-22T15:52:04.958Z,11.60
2017-11-22T15:55:07.099Z,11.40
2017-11-22T15:58:08.578Z,11.30
2017-11-22T16:01:10.624Z,11.40
2017-11-22T16:04:12.286Z,11.20
2017-11-22T16:07:13.671Z,11.40
2017-11-22T16:10:15.107Z,11.30
2017-11-22T16:13:17.257Z,11.40
2017-11-22T16:16:18.763Z,11.30
2017-11-22T16:19:20.166Z,11.40
2017-11-22T16:22:21.707Z,11.20
2017-11-22T16:25:23.285Z,11.30
2017-11-22T16:28:24.846Z,11.30
2017-11-22T16:31:26.962Z,11.20
2017-11-22T16:34:28.436Z,11.20
2017-11-22T16:37:29.866Z,11.20
2017-11-22T16:40:31.278Z,11.20
2017-11-22T16:43:33.419Z,11.20
2017-11-22T16:46:35.110Z,11.10
2017-11-22T16:49:37.251Z,11.20
2017-11-22T16:52:38.638Z,11.10
2017-11-22T16:55:40.027Z,11.10
2017-11-22T16:58:41.397Z,11.10
2017-11-22T17:01:42.736Z,11.10
2017-11-22T17:04:44.128Z,11.00
2017-11-22T17:07:45.609Z,11.00
2017-11-22T17:10:46.961Z,11.00
2017-11-22T17:13:48.380Z,11.00
2017-11-22T17:16:50.538Z,11.10
2017-11-22T17:19:52.011Z,11.00
2017-11-22T17:22:53.376Z,11.10
2017-11-22T17:25:54.781Z,10.90
2017-11-22T17:28:56.136Z,11.00
2017-11-22T17:31:57.518Z,11.00
2017-11-22T17:34:58.922Z,11.00
2017-11-22T17:38:00.275Z,11.00
2017-11-22T17:41:01.834Z,11.00
2017-11-22T17:44:03.354Z,11.00
2017-11-22T17:47:04.777Z,11.00
2017-11-22T17:50:06.136Z,11.10
2017-11-22T17:53:07.746Z,11.10
2017-11-22T17:56:09.426Z,11.10
2017-11-22T17:59:13.008Z,11.20
2017-11-22T18:02:14.407Z,11.10
2017-11-22T18:05:16.354Z,11.10
2017-11-22T18:08:20.108Z,11.20
2017-11-22T18:11:21.529Z,11.10
2017-11-22T18:14:23.049Z,11.20
2017-11-22T18:17:24.808Z,11.20
2017-11-22T18:20:27.235Z,11.30
2017-11-22T18:23:28.860Z,11.20
2017-11-22T18:26:30.852Z,11.20
2017-11-22T18:29:32.901Z,11.10
2017-11-22T18:32:34.401Z,11.20
2017-11-22T18:35:36.394Z,11.30
2017-11-22T18:38:38.595Z,11.20
2017-11-22T18:41:40.637Z,11.10
2017-11-22T18:44:42.707Z,11.20
2017-11-22T18:47:44.145Z,11.20
2017-11-22T18:50:46.102Z,11.20
2017-11-22T18:53:47.612Z,11.10
2017-11-22T18:56:50.221Z,11.10
2017-11-22T18:59:53.239Z,11.20
2017-11-22T19:02:56.498Z,11.10
2017-11-22T19:05:58.858Z,10.90
2017-11-22T19:09:01.880Z,10.90
2017-11-22T19:12:04.723Z,11.10
2017-11-22T19:15:07.221Z,11.10
2017-11-22T19:18:10.174Z,11.10
2017-11-22T19:21:13.130Z,11.20
2017-11-22T19:24:17.512Z,11.10
2017-11-22T19:27:19.218Z,11.10
2017-11-22T19:30:24.100Z,11.10
2017-11-22T19:33:26.000Z,11.10
2017-11-22T19:36:28.704Z,11.10
2017-11-22T19:39:32.356Z,11.10
2017-11-22T19:42:33.790Z,11.00
2017-11-22T19:45:36.512Z,11.10
2017-11-22T19:48:38.052Z,11.00
2017-11-22T19:51:42.023Z,11.10
2017-11-22T19:54:43.860Z,11.10
2017-11-22T19:57:45.336Z,11.10
2017-11-22T20:00:46.936Z,11.10
2017-11-22T20:03:48.306Z,11.10
2017-11-22T20:07:08.487Z,11.00
2017-11-22T20:10:11.347Z,11.00
2017-11-22T20:13:14.138Z,11.00
2017-11-22T20:16:16.517Z,10.80
2017-11-22T20:19:21.270Z,10.90
2017-11-22T20:22:23.676Z,10.90
2017-11-22T20:25:26.365Z,11.00
2017-11-22T20:28:29.063Z,11.00
2017-11-22T20:31:30.546Z,10.90
2017-11-22T20:34:33.696Z,10.90
2017-11-22T20:37:35.361Z,10.90
2017-11-22T20:40:37.302Z,11.00
2017-11-22T20:43:40.572Z,10.90
2017-11-22T20:46:42.082Z,10.90
2017-11-22T20:49:43.517Z,10.90
2017-11-22T20:52:45.691Z,10.80
2017-11-22T20:55:47.185Z,10.80
2017-11-22T20:58:48.687Z,10.90
2017-11-22T21:01:50.125Z,10.80
2017-11-22T21:04:52.229Z,10.80
2017-11-22T21:07:53.778Z,10.90
2017-11-22T21:10:55.135Z,10.90
2017-11-22T21:13:56.681Z,10.80
2017-11-22T21:16:58.128Z,10.80
2017-11-22T21:19:59.754Z,10.80
2017-11-22T21:23:02.045Z,10.80
2017-11-22T21:26:03.484Z,10.80
2017-11-22T21:29:05.993Z,10.80
2017-11-22T21:32:07.853Z,10.80
2017-11-22T21:35:10.627Z,10.90
2017-11-22T21:38:12.997Z,10.90
2017-11-22T21:41:14.732Z,10.70
2017-11-22T21:44:17.140Z,10.90
2017-11-22T21:47:18.728Z,10.90
2017-11-22T21:50:20.579Z,10.90
2017-11-22T21:53:22.350Z,10.70
2017-11-22T21:56:24.898Z,10.90
2017-11-22T21:59:26.994Z,10.90
2017-11-22T22:02:28.461Z,10.90
2017-11-22T22:05:29.965Z,10.80
2017-11-22T22:08:31.397Z,10.90
2017-11-22T22:11:33.876Z,11.00
2017-11-22T22:14:35.674Z,11.00
2017-11-22T22:17:37.707Z,10.90
2017-11-22T22:20:39.659Z,11.00
2017-11-22T22:23:41.133Z,11.00
2017-11-22T22:26:42.647Z,11.00
2017-11-22T22:29:44.195Z,11.00
2017-11-22T22:32:45.726Z,11.20
2017-11-22T22:35:47.574Z,11.00
2017-11-22T22:38:49.055Z,11.20
2017-11-22T22:41:50.760Z,11.20
2017-11-22T22:44:52.980Z,11.20
2017-11-22T22:47:54.382Z,11.10
2017-11-22T22:50:56.687Z,11.20
2017-11-22T22:53:58.180Z,11.10
2017-11-22T22:56:59.682Z,11.20
2017-11-22T23:00:01.201Z,11.20
2017-11-22T23:03:03.444Z,11.30
2017-11-22T23:06:04.943Z,11.30
2017-11-22T23:09:06.374Z,11.30
2017-11-22T23:12:07.891Z,11.30
2017-11-22T23:15:09.401Z,11.20
2017-11-22T23:18:11.643Z,11.30
2017-11-22T23:21:13.119Z,11.40
2017-11-22T23:24:15.357Z,11.40
2017-11-22T23:27:16.851Z,11.20
2017-11-22T23:30:19.034Z,11.40
2017-11-22T23:33:20.549Z,11.40
2017-11-22T23:36:22.058Z,11.40
2017-11-22T23:39:23.605Z,11.40
2017-11-22T23:42:25.202Z,11.40
2017-11-22T23:45:26.787Z,11.40
2017-11-22T23:48:28.257Z,11.40
2017-11-22T23:51:29.728Z,11.40
2017-11-22T23:54:31.194Z,11.40
2017-11-22T23:57:32.688Z,11.40
